Time,TemperatureF,DewpointF,PressureIn,WindDirection,WindDirectionDegrees,WindSpeedMPH,WindSpeedGustMPH,Humidity,HourlyPrecipIn,Conditions,Clouds,dailyrainin,SoftwareType,DateUTC
2013-01-09 00:02:00,27.0,24.0,-100.00,NNE,32,3.0,4.0,89,-99.99,,,-99.99,,2013-01-09 08:02:00,
2013-01-09 00:12:00,27.0,24.0,-100.00,NE,40,2.0,4.0,89,-99.99,,,-99.99,,2013-01-09 08:12:00,
2013-01-09 00:22:00,27.0,24.0,-100.00,NE,40,2.0,4.0,89,-99.99,,,-99.99,,2013-01-09 08:22:00,
2013-01-09 00:32:00,27.0,24.0,-100.00,NE,37,4.0,6.0,88,-99.99,,,-99.99,,2013-01-09 08:32:00,
2013-01-09 00:42:00,28.0,25.0,-100.00,ENE,66,2.0,5.0,89,-99.99,,,-99.99,,2013-01-09 08:42:00,
2013-01-09 00:53:00,27.0,24.0,-100.00,ENE,59,1.0,3.0,89,-99.99,,,-99.99,,2013-01-09 08:53:00,
2013-01-09 01:02:00,28.0,25.0,-100.00,NE,38,1.0,4.0,89,-99.99,,,-99.99,,2013-01-09 09:02:00,
2013-01-09 01:12:00,28.0,25.0,-100.00,NNE,31,3.0,4.0,88,-99.99,,,-99.99,,2013-01-09 09:12:00,
2013-01-09 01:22:00,27.0,24.0,-100.00,ESE,116,0.0,3.0,88,-99.99,,,-99.99,,2013-01-09 09:22:00,
2013-01-09 01:32:00,27.0,24.0,-100.00,ESE,116,0.0,3.0,88,-99.99,,,-99.99,,2013-01-09 09:32:00,
2013-01-09 01:42:00,26.0,23.0,-100.00,NNE,28,2.0,4.0,90,-99.99,,,-99.99,,2013-01-09 09:42:00,
2013-01-09 01:53:00,27.0,24.0,-100.00,NE,34,2.0,4.0,90,-99.99,,,-99.99,,2013-01-09 09:53:00,
2013-01-09 02:02:00,27.0,25.0,-100.00,NE,37,2.0,5.0,91,-99.99,,,-99.99,,2013-01-09 10:02:00,
2013-01-09 02:11:00,27.0,25.0,-100.00,NE,48,2.0,4.0,91,-99.99,,,-99.99,,2013-01-09 10:11:00,
2013-01-09 02:22:00,27.0,25.0,-100.00,NE,49,2.0,3.0,91,-99.99,,,-99.99,,2013-01-09 10:22:00,
2013-01-09 02:32:00,27.0,25.0,-100.00,NE,35,3.0,4.0,92,-99.99,,,-99.99,,2013-01-09 10:32:00,
2013-01-09 02:42:00,27.0,25.0,-100.00,NE,44,3.0,5.0,93,-99.99,,,-99.99,,2013-01-09 10:42:00,
2013-01-09 02:52:00,27.0,25.0,-100.00,ENE,71,2.0,5.0,93,-99.99,,,-99.99,,2013-01-09 10:52:00,
2013-01-09 03:02:00,27.0,25.0,-100.00,NE,49,2.0,3.0,93,-99.99,,,-99.99,,2013-01-09 11:02:00,
2013-01-09 03:11:00,27.0,26.0,-100.00,NNE,30,3.0,4.0,94,-99.99,,,-99.99,,2013-01-09 11:11:00,
2013-01-09 03:22:00,26.0,25.0,-100.00,NNE,21,2.0,6.0,94,-99.99,,,-99.99,,2013-01-09 11:22:00,
2013-01-09 03:32:00,27.0,25.0,-100.00,NE,42,2.0,4.0,95,-99.99,,,-99.99,,2013-01-09 11:32:00,
2013-01-09 03:42:00,26.0,25.0,-100.00,NE,34,2.0,4.0,95,-99.99,,,-99.99,,2013-01-09 11:42:00,
2013-01-09 03:52:00,26.0,25.0,-100.00,NE,42,2.0,4.0,95,-99.99,,,-99.99,,2013-01-09 11:52:00,
2013-01-09 04:03:00,26.0,25.0,-100.00,NE,35,3.0,5.0,95,-99.99,,,-99.99,,2013-01-09 12:03:00,
2013-01-09 04:12:00,25.0,24.0,-100.00,NE,45,2.0,5.0,95,-99.99,,,-99.99,,2013-01-09 12:12:00,
2013-01-09 04:22:00,26.0,25.0,-100.00,NE,51,3.0,5.0,95,-99.99,,,-99.99,,2013-01-09 12:22:00,
2013-01-09 04:32:00,25.0,24.0,-100.00,NE,37,2.0,5.0,94,-99.99,,,-99.99,,2013-01-09 12:32:00,
2013-01-09 04:42:00,25.0,23.0,-100.00,NNE,27,2.0,4.0,93,-99.99,,,-99.99,,2013-01-09 12:42:00,
2013-01-09 04:52:00,25.0,23.0,-100.00,NE,38,2.0,4.0,93,-99.99,,,-99.99,,2013-01-09 12:52:00,
2013-01-09 05:02:00,25.0,22.0,-100.00,NE,37,3.0,5.0,90,-99.99,,,-99.99,,2013-01-09 13:02:00,
2013-01-09 05:12:00,25.0,22.0,-100.00,NNE,18,2.0,4.0,88,-99.99,,,-99.99,,2013-01-09 13:12:00,
2013-01-09 05:22:00,26.0,23.0,-100.00,NE,56,2.0,5.0,87,-99.99,,,-99.99,,2013-01-09 13:22:00,
2013-01-09 05:32:00,25.0,22.0,-100.00,NE,42,3.0,6.0,86,-99.99,,,-99.99,,2013-01-09 13:32:00,
2013-01-09 05:42:00,25.0,21.0,-100.00,NNE,27,2.0,4.0,84,-99.99,,,-99.99,,2013-01-09 13:42:00,
2013-01-09 05:52:00,25.0,21.0,-100.00,NNE,27,3.0,6.0,85,-99.99,,,-99.99,,2013-01-09 13:52:00,
2013-01-09 06:02:00,25.0,21.0,-100.00,NNE,27,3.0,6.0,85,-99.99,,,-99.99,,2013-01-09 14:02:00,
2013-01-09 06:12:00,26.0,20.0,-100.00,NE,40,4.0,7.0,79,-99.99,,,-99.99,,2013-01-09 14:12:00,
2013-01-09 06:22:00,28.0,20.0,-100.00,NE,40,4.0,7.0,72,-99.99,,,-99.99,,2013-01-09 14:22:00,
2013-01-09 06:33:00,28.0,21.0,-100.00,NE,44,4.0,7.0,74,-99.99,,,-99.99,,2013-01-09 14:33:00,
2013-01-09 06:43:00,29.0,21.0,-100.00,NE,35,4.0,8.0,71,-99.99,,,-99.99,,2013-01-09 14:43:00,
2013-01-09 06:52:00,29.0,20.0,-100.00,NNE,14,3.0,7.0,70,-99.99,,,-99.99,,2013-01-09 14:52:00,
2013-01-09 07:03:00,33.0,21.0,-100.00,NNW,330,2.0,8.0,61,-99.99,,,-99.99,,2013-01-09 15:03:00,
2013-01-09 07:12:00,34.0,20.0,-100.00,NNE,16,3.0,8.0,56,-99.99,,,-99.99,,2013-01-09 15:12:00,
2013-01-09 07:22:00,35.0,20.0,-100.00,North,359,3.0,6.0,53,-99.99,,,-99.99,,2013-01-09 15:22:00,
2013-01-09 07:33:00,35.0,18.0,-100.00,NNW,335,3.0,8.0,50,-99.99,,,-99.99,,2013-01-09 15:33:00,
2013-01-09 07:42:00,35.0,18.0,-100.00,NNW,335,3.0,8.0,50,-99.99,,,-99.99,,2013-01-09 15:42:00,
2013-01-09 07:52:00,33.0,21.0,-100.00,NE,41,3.0,6.0,60,-99.99,,,-99.99,,2013-01-09 15:52:00,
2013-01-09 08:02:00,33.0,20.0,-100.00,NE,42,3.0,5.0,59,-99.99,,,-99.99,,2013-01-09 16:02:00,
2013-01-09 08:12:00,33.0,21.0,-100.00,NE,40,2.0,5.0,59,-99.99,,,-99.99,,2013-01-09 16:12:00,
2013-01-09 08:22:00,34.0,21.0,-100.00,NE,51,3.0,6.0,58,-99.99,,,-99.99,,2013-01-09 16:22:00,
2013-01-09 08:33:00,34.0,21.0,-100.00,North,7,3.0,6.0,58,-99.99,,,-99.99,,2013-01-09 16:33:00,
2013-01-09 08:42:00,34.0,21.0,-100.00,North,7,3.0,6.0,58,-99.99,,,-99.99,,2013-01-09 16:42:00,
2013-01-09 08:52:00,35.0,20.0,-100.00,North,11,2.0,5.0,54,-99.99,,,-99.99,,2013-01-09 16:52:00,
2013-01-09 09:02:00,35.0,21.0,-100.00,NE,37,2.0,5.0,56,-99.99,,,-99.99,,2013-01-09 17:02:00,
2013-01-09 09:12:00,38.0,21.0,-100.00,NNW,329,2.0,6.0,49,-99.99,,,-99.99,,2013-01-09 17:12:00,
2013-01-09 09:22:00,43.0,19.0,-100.00,WNW,294,3.0,7.0,38,-99.99,,,-99.99,,2013-01-09 17:22:00,
2013-01-09 09:32:00,43.0,20.0,-100.00,WNW,302,3.0,8.0,40,-99.99,,,-99.99,,2013-01-09 17:32:00,
2013-01-09 09:43:00,44.0,20.0,-100.00,West,267,4.0,9.0,38,-99.99,,,-99.99,,2013-01-09 17:43:00,
2013-01-09 09:52:00,45.0,21.0,-100.00,West,263,3.0,8.0,38,-99.99,,,-99.99,,2013-01-09 17:52:00,
2013-01-09 10:03:00,47.0,20.0,-100.00,SSW,203,5.0,15.0,34,-99.99,,,-99.99,,2013-01-09 18:03:00,
2013-01-09 10:12:00,48.0,20.0,-100.00,SSW,203,4.0,13.0,33,-99.99,,,-99.99,,2013-01-09 18:12:00,
2013-01-09 10:23:00,48.0,20.0,-100.00,South,184,5.0,10.0,33,-99.99,,,-99.99,,2013-01-09 18:23:00,
2013-01-09 10:32:00,49.0,21.0,-100.00,South,181,7.0,19.0,33,-99.99,,,-99.99,,2013-01-09 18:32:00,
2013-01-09 10:43:00,49.0,21.0,-100.00,South,181,7.0,19.0,33,-99.99,,,-99.99,,2013-01-09 18:43:00,
2013-01-09 10:52:00,49.0,21.0,-100.00,South,175,9.0,21.0,32,-99.99,,,-99.99,,2013-01-09 18:52:00,
2013-01-09 11:02:00,49.0,21.0,-100.00,South,175,9.0,21.0,32,-99.99,,,-99.99,,2013-01-09 19:02:00,
2013-01-09 11:12:00,49.0,21.0,-100.00,SSE,164,10.0,25.0,33,-99.99,,,-99.99,,2013-01-09 19:12:00,
2013-01-09 11:22:00,50.0,21.0,-100.00,SSE,167,10.0,32.0,31,-99.99,,,-99.99,,2013-01-09 19:22:00,
2013-01-09 11:33:00,50.0,21.0,-100.00,SSE,167,10.0,32.0,31,-99.99,,,-99.99,,2013-01-09 19:33:00,
2013-01-09 11:43:00,50.0,21.0,-100.00,SSE,167,10.0,32.0,31,-99.99,,,-99.99,,2013-01-09 19:43:00,
2013-01-09 11:52:00,48.0,20.0,-100.00,South,178,10.0,28.0,33,-99.99,,,-99.99,,2013-01-09 19:52:00,
2013-01-09 12:02:00,48.0,21.0,-100.00,SSE,168,8.0,18.0,34,-99.99,,,-99.99,,2013-01-09 20:02:00,
2013-01-09 12:12:00,48.0,21.0,-100.00,South,178,8.0,24.0,35,-99.99,,,-99.99,,2013-01-09 20:12:00,
2013-01-09 12:22:00,48.0,21.0,-100.00,South,184,8.0,23.0,34,-99.99,,,-99.99,,2013-01-09 20:22:00,
2013-01-09 12:32:00,47.0,21.0,-100.00,South,176,7.0,20.0,35,-99.99,,,-99.99,,2013-01-09 20:32:00,
2013-01-09 12:42:00,47.0,22.0,-100.00,SSE,168,8.0,18.0,37,-99.99,,,-99.99,,2013-01-09 20:42:00,
2013-01-09 12:52:00,47.0,23.0,-100.00,South,175,7.0,28.0,38,-99.99,,,-99.99,,2013-01-09 20:52:00,
2013-01-09 13:02:00,47.0,23.0,-100.00,South,178,7.0,19.0,39,-99.99,,,-99.99,,2013-01-09 21:02:00,
2013-01-09 13:12:00,47.0,23.0,-100.00,South,181,9.0,20.0,39,-99.99,,,-99.99,,2013-01-09 21:12:00,
2013-01-09 13:22:00,47.0,23.0,-100.00,South,189,8.0,22.0,39,-99.99,,,-99.99,,2013-01-09 21:22:00,
2013-01-09 13:32:00,47.0,24.0,-100.00,South,186,7.0,19.0,40,-99.99,,,-99.99,,2013-01-09 21:32:00,
2013-01-09 13:42:00,46.0,24.0,-100.00,South,179,9.0,26.0,41,-99.99,,,-99.99,,2013-01-09 21:42:00,
2013-01-09 13:52:00,47.0,24.0,-100.00,South,186,8.0,21.0,40,-99.99,,,-99.99,,2013-01-09 21:52:00,
2013-01-09 14:03:00,46.0,23.0,-100.00,South,186,11.0,26.0,40,-99.99,,,-99.99,,2013-01-09 22:03:00,
2013-01-09 14:12:00,46.0,24.0,-100.00,South,188,8.0,17.0,41,-99.99,,,-99.99,,2013-01-09 22:12:00,
2013-01-09 14:22:00,46.0,24.0,-100.00,South,176,8.0,17.0,41,-99.99,,,-99.99,,2013-01-09 22:22:00,
2013-01-09 14:32:00,46.0,24.0,-100.00,South,185,7.0,21.0,42,-99.99,,,-99.99,,2013-01-09 22:32:00,
2013-01-09 14:42:00,46.0,24.0,-100.00,South,178,6.0,21.0,42,-99.99,,,-99.99,,2013-01-09 22:42:00,
2013-01-09 14:52:00,45.0,24.0,-100.00,South,191,8.0,20.0,43,-99.99,,,-99.99,,2013-01-09 22:52:00,
2013-01-09 15:02:00,45.0,24.0,-100.00,South,185,8.0,24.0,43,-99.99,,,-99.99,,2013-01-09 23:02:00,
2013-01-09 15:12:00,45.0,25.0,-100.00,SSW,200,6.0,14.0,45,-99.99,,,-99.99,,2013-01-09 23:12:00,
2013-01-09 15:22:00,44.0,25.0,-100.00,South,188,7.0,20.0,46,-99.99,,,-99.99,,2013-01-09 23:22:00,
2013-01-09 15:32:00,44.0,25.0,-100.00,SSW,192,7.0,19.0,48,-99.99,,,-99.99,,2013-01-09 23:32:00,
2013-01-09 15:42:00,44.0,26.0,-100.00,South,181,6.0,20.0,48,-99.99,,,-99.99,,2013-01-09 23:42:00,
2013-01-09 15:52:00,43.0,25.0,-100.00,South,179,9.0,20.0,49,-99.99,,,-99.99,,2013-01-09 23:52:00,
2013-01-09 16:02:00,42.0,25.0,-100.00,South,185,8.0,20.0,50,-99.99,,,-99.99,,2013-01-10 00:02:00,
2013-01-09 16:12:00,42.0,25.0,-100.00,South,176,9.0,20.0,51,-99.99,,,-99.99,,2013-01-10 00:12:00,
2013-01-09 16:22:00,42.0,26.0,-100.00,South,185,7.0,16.0,53,-99.99,,,-99.99,,2013-01-10 00:22:00,
2013-01-09 16:32:00,41.0,26.0,-100.00,South,176,7.0,17.0,56,-99.99,,,-99.99,,2013-01-10 00:32:00,
2013-01-09 16:42:00,41.0,27.0,-100.00,South,182,7.0,18.0,56,-99.99,,,-99.99,,2013-01-10 00:42:00,
2013-01-09 16:52:00,40.0,26.0,-100.00,South,182,6.0,14.0,56,-99.99,,,-99.99,,2013-01-10 00:52:00,
2013-01-09 17:02:00,40.0,26.0,-100.00,South,171,6.0,13.0,56,-99.99,,,-99.99,,2013-01-10 01:02:00,
2013-01-09 17:12:00,40.0,26.0,-100.00,South,186,4.0,8.0,58,-99.99,,,-99.99,,2013-01-10 01:12:00,
2013-01-09 17:22:00,40.0,26.0,-100.00,South,189,5.0,11.0,58,-99.99,,,-99.99,,2013-01-10 01:22:00,
2013-01-09 17:32:00,40.0,26.0,-100.00,SSW,198,9.0,18.0,58,-99.99,,,-99.99,,2013-01-10 01:32:00,
2013-01-09 17:42:00,39.0,26.0,-100.00,South,175,8.0,20.0,59,-99.99,,,-99.99,,2013-01-10 01:42:00,
2013-01-09 17:52:00,39.0,26.0,-100.00,South,169,6.0,16.0,60,-99.99,,,-99.99,,2013-01-10 01:52:00,
2013-01-09 18:02:00,39.0,26.0,-100.00,South,169,6.0,16.0,60,-99.99,,,-99.99,,2013-01-10 02:02:00,
2013-01-09 18:12:00,38.0,26.0,-100.00,South,185,3.0,8.0,61,-99.99,,,-99.99,,2013-01-10 02:12:00,
2013-01-09 18:22:00,39.0,26.0,-100.00,South,181,5.0,17.0,59,-99.99,,,-99.99,,2013-01-10 02:22:00,
2013-01-09 18:32:00,38.0,26.0,-100.00,South,171,4.0,12.0,61,-99.99,,,-99.99,,2013-01-10 02:32:00,
2013-01-09 18:42:00,38.0,26.0,-100.00,South,171,4.0,12.0,61,-99.99,,,-99.99,,2013-01-10 02:42:00,
2013-01-09 18:52:00,38.0,26.0,-100.00,South,171,4.0,12.0,61,-99.99,,,-99.99,,2013-01-10 02:52:00,
2013-01-09 19:02:00,38.0,27.0,-100.00,SSE,168,8.0,17.0,65,-99.99,,,-99.99,,2013-01-10 03:02:00,
2013-01-09 19:12:00,37.0,28.0,-100.00,SSE,157,7.0,20.0,69,-99.99,,,-99.99,,2013-01-10 03:12:00,
2013-01-09 19:22:00,35.0,30.0,-100.00,South,185,5.0,13.0,83,-99.99,,,-99.99,,2013-01-10 03:22:00,
2013-01-09 19:32:00,34.0,31.0,-100.00,SSW,198,5.0,12.0,88,-99.99,,,-99.99,,2013-01-10 03:32:00,
2013-01-09 19:42:00,32.0,30.0,-100.00,SSW,203,5.0,15.0,94,-99.99,,,-99.99,,2013-01-10 03:42:00,
2013-01-09 19:52:00,32.0,31.0,-100.00,SW,215,4.0,11.0,95,-99.99,,,-99.99,,2013-01-10 03:52:00,
2013-01-09 20:02:00,32.0,31.0,-100.00,SSW,206,2.0,7.0,96,-99.99,,,-99.99,,2013-01-10 04:02:00,
2013-01-09 20:12:00,31.0,30.0,-100.00,SSW,205,1.0,4.0,96,-99.99,,,-99.99,,2013-01-10 04:12:00,
2013-01-09 20:22:00,31.0,30.0,-100.00,SW,232,2.0,7.0,96,-99.99,,,-99.99,,2013-01-10 04:22:00,
2013-01-09 20:32:00,31.0,30.0,-100.00,SW,232,3.0,7.0,97,-99.99,,,-99.99,,2013-01-10 04:32:00,
2013-01-09 20:42:00,31.0,30.0,-100.00,SW,226,2.0,6.0,97,-99.99,,,-99.99,,2013-01-10 04:42:00,
2013-01-09 20:52:00,31.0,30.0,-100.00,SSE,155,1.0,6.0,97,-99.99,,,-99.99,,2013-01-10 04:52:00,
2013-01-09 21:03:00,31.0,30.0,-100.00,SSE,155,1.0,6.0,97,-99.99,,,-99.99,,2013-01-10 05:03:00,
2013-01-09 21:12:00,31.0,30.0,-100.00,South,188,3.0,7.0,96,-99.99,,,-99.99,,2013-01-10 05:12:00,
2013-01-09 21:22:00,31.0,30.0,-100.00,South,188,3.0,7.0,96,-99.99,,,-99.99,,2013-01-10 05:22:00,
2013-01-09 21:33:00,30.0,29.0,-100.00,SW,236,2.0,7.0,96,-99.99,,,-99.99,,2013-01-10 05:33:00,
2013-01-09 21:42:00,30.0,29.0,-100.00,South,189,3.0,11.0,96,-99.99,,,-99.99,,2013-01-10 05:42:00,
2013-01-09 21:52:00,30.0,29.0,-100.00,SSW,192,5.0,14.0,96,-99.99,,,-99.99,,2013-01-10 05:52:00,
2013-01-09 22:02:00,30.0,29.0,-100.00,SSW,192,6.0,20.0,96,-99.99,,,-99.99,,2013-01-10 06:02:00,
2013-01-09 22:11:00,28.0,27.0,-100.00,South,174,6.0,21.0,97,-99.99,,,-99.99,,2013-01-10 06:11:00,
2013-01-09 22:22:00,28.0,27.0,-100.00,South,175,7.0,23.0,97,-99.99,,,-99.99,,2013-01-10 06:22:00,
2013-01-09 22:32:00,27.0,26.0,-100.00,South,185,7.0,17.0,97,-99.99,,,-99.99,,2013-01-10 06:32:00,
2013-01-09 22:42:00,27.0,26.0,-100.00,South,185,7.0,17.0,97,-99.99,,,-99.99,,2013-01-10 06:42:00,
2013-01-09 22:52:00,23.0,22.0,-100.00,South,171,6.0,15.0,94,-99.99,,,-99.99,,2013-01-10 06:52:00,
2013-01-09 23:02:00,23.0,21.0,-100.00,SSE,165,8.0,19.0,93,-99.99,,,-99.99,,2013-01-10 07:02:00,
2013-01-09 23:12:00,23.0,21.0,-100.00,SSE,155,5.0,12.0,93,-99.99,,,-99.99,,2013-01-10 07:12:00,
2013-01-09 23:22:00,22.0,20.0,-100.00,SSE,147,5.0,11.0,93,-99.99,,,-99.99,,2013-01-10 07:22:00,
2013-01-09 23:32:00,22.0,20.0,-100.00,SSE,147,5.0,11.0,93,-99.99,,,-99.99,,2013-01-10 07:32:00,
2013-01-09 23:42:00,22.0,20.0,-100.00,SSE,147,5.0,11.0,93,-99.99,,,-99.99,,2013-01-10 07:42:00,
2013-01-09 23:52:00,22.0,20.0,-100.00,South,181,5.0,11.0,93,-99.99,,,-99.99,,2013-01-10 07:52:00,